Quechee, Vermont
Current Conditions -  °F | °C
As of 10:53 PM on Tuesday 21 Oct 2014 (Local Time) from KLEB Reporting Station
Overcast Overcast  
Wind Chill: 50°   Ceiling: 600
Heat Index: 50°   Visibility: 10mi
Dew Point: 45°   Wind: 3mph
Humidity: 83%   Direction: 350°N
Pressure: 30.06"   Gusts: NA
Location:  43.65°N, 72.42°W
Report Text: KLEB 220253Z AUTO 35003KT 10SM BKN006 OVC015 10/07 A3006 RMK AO2 SLP179 T01000072 51010
Loading
Personal Weather Stations






























Interactive Weather Map
Tropical Storm Tracking
New forecast layout! Learn more

10-Day Weather Forecast

Advertisements
Track Severe Weather on mobile